Time;durP1;ratioP1;P1;durP2;ratioP2;P2;SDS_P1;SDS_P2;PMS_P1;PMS_P2;Temp;Humidity;BMP_temperature;BMP_pressure;BME280_temperature;BME280_humidity;BME280_pressure;Samples;Min_cycle;Max_cycle;Signal;HPM_P1;HPM_P2
2023/05/29 00:02:21;;;;;;;;;;;17.10;99.90;;;;;;5075027;28;19982;-65
2023/05/29 00:04:46;;;;;;;;;;;17.00;99.90;;;;;;5075352;28;20107;-63
2023/05/29 00:07:12;;;;;;;;;;;17.00;99.90;;;;;;5075216;28;19981;-64
2023/05/29 00:09:37;;;;;;;;;;;17.00;99.90;;;;;;5075133;28;20013;-65
2023/05/29 00:12:03;;;;;;;;;;;16.80;99.90;;;;;;5075058;28;19988;-62
2023/05/29 00:14:28;;;;;;;;;;;16.80;99.90;;;;;;5075190;28;20073;-63
2023/05/29 00:16:54;;;;;;;;;;;16.80;99.90;;;;;;5074866;28;19981;-64
2023/05/29 00:19:19;;;;;;;;;;;16.70;99.90;;;;;;5074899;28;19985;-63
2023/05/29 00:21:47;;;;;;;;;;;16.70;99.90;;;;;;5074994;28;20466;-65
2023/05/29 00:24:14;;;;;;;;;;;16.70;99.90;;;;;;5074914;28;19985;-62
2023/05/29 00:26:39;;;;;;;;;;;16.70;99.90;;;;;;5074797;28;20381;-65
2023/05/29 00:29:05;;;;;;;;;;;16.70;99.90;;;;;;5074834;28;20100;-62
2023/05/29 00:31:30;;;;;;;;;;;16.80;99.90;;;;;;5074750;28;20348;-63
2023/05/29 00:33:56;;;;;;;;;;;16.80;99.90;;;;;;5074673;28;19981;-62
2023/05/29 00:36:21;;;;;;;;;;;16.80;99.90;;;;;;5074785;28;19982;-63
2023/05/29 00:38:47;;;;;;;;;;;16.70;99.90;;;;;;5074724;28;20392;-62
2023/05/29 00:41:14;;;;;;;;;;;16.80;99.90;;;;;;5073772;28;20470;-64
2023/05/29 00:43:39;;;;;;;;;;;16.80;99.90;;;;;;5074352;28;20063;-63
2023/05/29 00:46:05;;;;;;;;;;;16.90;99.90;;;;;;5074174;28;19993;-63
2023/05/29 00:48:30;;;;;;;;;;;16.80;99.90;;;;;;5074375;28;19981;-64
2023/05/29 00:50:56;;;;;;;;;;;16.80;99.90;;;;;;5074542;28;20009;-64
2023/05/29 00:53:22;;;;;;;;;;;16.70;99.90;;;;;;5074396;28;19982;-65
2023/05/29 00:55:48;;;;;;;;;;;16.70;99.90;;;;;;5074361;28;19981;-65
2023/05/29 00:58:14;;;;;;;;;;;16.70;99.90;;;;;;5074142;28;20079;-64
2023/05/29 01:00:40;;;;;;;;;;;16.70;99.90;;;;;;5074115;28;20039;-62
2023/05/29 01:03:06;;;;;;;;;;;16.70;99.90;;;;;;5074122;28;19982;-62
2023/05/29 01:05:33;;;;;;;;;;;16.70;99.90;;;;;;5072934;28;20485;-63
2023/05/29 01:07:59;;;;;;;;;;;16.70;99.90;;;;;;5074404;28;20011;-62
2023/05/29 01:10:26;;;;;;;;;;;16.70;99.90;;;;;;5074059;28;20433;-63
2023/05/29 01:13:13;;;;;;;;;;;16.70;99.90;;;;;;5073957;28;19981;-65
2023/05/29 01:15:50;;;;;;;;;;;16.60;99.90;;;;;;5073811;28;20415;-62
2023/05/29 01:18:19;;;;;;;;;;;16.60;99.90;;;;;;5074165;28;19992;-64
2023/05/29 01:20:50;;;;;;;;;;;16.50;99.90;;;;;;5073902;28;19985;-62
2023/05/29 01:23:22;;;;;;;;;;;16.50;99.90;;;;;;5074183;28;20050;-62
2023/05/29 01:26:06;;;;;;;;;;;16.50;99.90;;;;;;5073892;28;19985;-63
2023/05/29 01:28:36;;;;;;;;;;;16.50;99.90;;;;;;5073562;28;20394;-64
2023/05/29 01:31:03;;;;;;;;;;;16.50;99.90;;;;;;5073795;28;20035;-65
2023/05/29 01:33:29;;;;;;;;;;;16.50;99.90;;;;;;5073784;28;20027;-65
2023/05/29 01:35:54;;;;;;;;;;;16.50;99.90;;;;;;5073786;28;19985;-65
2023/05/29 01:38:20;;;;;;;;;;;16.50;99.90;;;;;;5073612;28;19992;-65
2023/05/29 01:40:46;;;;;;;;;;;16.50;99.90;;;;;;5073643;28;20489;-65
2023/05/29 01:43:12;;;;;;;;;;;16.50;99.90;;;;;;5073393;28;20483;-64
2023/05/29 01:45:38;;;;;;;;;;;16.50;99.90;;;;;;5073621;28;19988;-62
2023/05/29 01:48:03;;;;;;;;;;;16.50;99.90;;;;;;5072306;28;20029;-63
2023/05/29 01:50:30;;;;;;;;;;;16.40;99.90;;;;;;5073737;28;20054;-64
2023/05/29 01:52:56;;;;;;;;;;;16.40;99.90;;;;;;5080280;28;19992;-62
2023/05/29 01:55:21;;;;;;;;;;;16.40;99.90;;;;;;5080264;28;19981;-62
2023/05/29 01:57:47;;;;;;;;;;;16.40;99.90;;;;;;5080098;28;19982;-62
2023/05/29 02:00:14;;;;;;;;;;;16.30;99.90;;;;;;5080369;28;19985;-62
2023/05/29 02:02:40;;;;;;;;;;;16.40;99.90;;;;;;5080188;28;20534;-65
2023/05/29 02:05:07;;;;;;;;;;;16.40;99.90;;;;;;5080145;28;19982;-64
2023/05/29 02:07:33;;;;;;;;;;;16.40;99.90;;;;;;5080068;28;20456;-64
2023/05/29 02:09:59;;;;;;;;;;;16.30;99.90;;;;;;5080252;28;20013;-63
2023/05/29 02:12:24;;;;;;;;;;;16.30;99.90;;;;;;5079901;28;20329;-63
2023/05/29 02:14:50;;;;;;;;;;;16.20;99.90;;;;;;5080063;28;20017;-65
2023/05/29 02:17:16;;;;;;;;;;;16.20;99.90;;;;;;5079977;28;19982;-62
2023/05/29 02:19:41;;;;;;;;;;;16.10;99.90;;;;;;5080023;28;20060;-63
2023/05/29 02:22:07;;;;;;;;;;;16.00;99.90;;;;;;5080057;28;19985;-62
2023/05/29 02:24:33;;;;;;;;;;;15.80;99.90;;;;;;5079865;28;19981;-65
2023/05/29 02:26:58;;;;;;;;;;;15.70;99.90;;;;;;5079733;28;20347;-62
2023/05/29 02:29:24;;;;;;;;;;;15.50;99.90;;;;;;5079924;28;20012;-64
2023/05/29 02:31:50;;;;;;;;;;;15.50;99.90;;;;;;5079802;28;20358;-65
2023/05/29 02:34:15;;;;;;;;;;;15.60;99.90;;;;;;5079851;28;19985;-63
2023/05/29 02:36:41;;;;;;;;;;;15.60;99.90;;;;;;5079857;28;19989;-63
2023/05/29 02:39:06;;;;;;;;;;;15.70;99.90;;;;;;5079788;28;19982;-63
2023/05/29 02:41:32;;;;;;;;;;;15.70;99.90;;;;;;5079884;28;19992;-63
2023/05/29 02:43:57;;;;;;;;;;;15.80;99.90;;;;;;5079654;28;20017;-62
2023/05/29 02:46:23;;;;;;;;;;;15.80;99.90;;;;;;5079830;28;20020;-63
2023/05/29 02:48:48;;;;;;;;;;;15.80;99.90;;;;;;5079544;28;19982;-64
2023/05/29 02:51:14;;;;;;;;;;;15.80;99.90;;;;;;5079980;28;20355;-65
2023/05/29 02:53:40;;;;;;;;;;;15.90;99.90;;;;;;5079735;28;19985;-64
2023/05/29 02:56:07;;;;;;;;;;;15.90;99.90;;;;;;5079454;28;20042;-63
2023/05/29 02:58:35;;;;;;;;;;;15.90;99.90;;;;;;5079681;28;20443;-64
2023/05/29 03:01:02;;;;;;;;;;;15.90;99.90;;;;;;5079937;28;19990;-62
2023/05/29 03:03:27;;;;;;;;;;;15.90;99.90;;;;;;5076991;28;20020;-62
2023/05/29 03:05:53;;;;;;;;;;;15.80;99.90;;;;;;5076441;28;20021;-65
2023/05/29 03:08:18;;;;;;;;;;;15.80;99.90;;;;;;5076452;28;19982;-63
2023/05/29 03:10:44;;;;;;;;;;;15.80;99.90;;;;;;5075978;28;20063;-62
2023/05/29 03:13:10;;;;;;;;;;;15.80;99.90;;;;;;5076411;28;19986;-64
2023/05/29 03:15:35;;;;;;;;;;;15.80;99.90;;;;;;5076350;28;19981;-64
2023/05/29 03:18:01;;;;;;;;;;;15.90;99.90;;;;;;5076208;28;20066;-63
2023/05/29 03:20:27;;;;;;;;;;;15.90;99.90;;;;;;5076121;28;20027;-62
2023/05/29 03:22:53;;;;;;;;;;;15.90;99.90;;;;;;5076217;28;19982;-64
2023/05/29 03:25:20;;;;;;;;;;;15.90;99.90;;;;;;5076210;28;20462;-63
2023/05/29 03:27:45;;;;;;;;;;;16.00;99.90;;;;;;5075992;28;20027;-64
2023/05/29 03:30:11;;;;;;;;;;;16.00;99.90;;;;;;5076165;28;20014;-64
2023/05/29 03:32:37;;;;;;;;;;;16.10;99.90;;;;;;5075900;28;19981;-62
2023/05/29 03:35:03;;;;;;;;;;;16.10;99.90;;;;;;5075818;28;20013;-65
2023/05/29 03:37:29;;;;;;;;;;;16.00;99.90;;;;;;5076128;28;20009;-65
2023/05/29 03:39:54;;;;;;;;;;;15.90;99.90;;;;;;5075685;28;20501;-64
2023/05/29 03:42:20;;;;;;;;;;;15.90;99.90;;;;;;5075669;28;19989;-65
2023/05/29 03:44:46;;;;;;;;;;;16.00;99.90;;;;;;5075618;28;20023;-62
2023/05/29 03:47:12;;;;;;;;;;;16.00;99.90;;;;;;5075600;28;19989;-62
2023/05/29 03:49:37;;;;;;;;;;;16.00;99.90;;;;;;5075686;28;20025;-63
2023/05/29 03:52:03;;;;;;;;;;;16.00;99.90;;;;;;5075874;28;20459;-63
2023/05/29 03:54:29;;;;;;;;;;;16.10;99.90;;;;;;5075311;28;20359;-64
2023/05/29 03:56:55;;;;;;;;;;;16.10;99.90;;;;;;5075502;28;20456;-62
2023/05/29 03:59:20;;;;;;;;;;;16.20;99.90;;;;;;5075312;28;19989;-65
2023/05/29 04:01:46;;;;;;;;;;;16.20;99.90;;;;;;5074112;28;19993;-64
2023/05/29 04:04:11;;;;;;;;;;;16.20;99.90;;;;;;5075344;28;19981;-65
2023/05/29 04:06:41;;;;;;;;;;;16.30;99.90;;;;;;5075214;28;19982;-64
2023/05/29 04:09:06;;;;;;;;;;;16.20;99.90;;;;;;5075016;28;20005;-65
2023/05/29 04:11:34;;;;;;;;;;;16.20;99.90;;;;;;5075249;28;19989;-64
2023/05/29 04:14:00;;;;;;;;;;;16.10;99.90;;;;;;5074785;28;19981;-62
2023/05/29 04:16:25;;;;;;;;;;;16.20;99.90;;;;;;5074434;28;20021;-64
2023/05/29 04:18:51;;;;;;;;;;;16.10;99.90;;;;;;5075087;28;20426;-65
2023/05/29 04:21:16;;;;;;;;;;;16.10;99.90;;;;;;5074883;28;19989;-64
2023/05/29 04:23:42;;;;;;;;;;;16.20;99.90;;;;;;5074905;28;19988;-64
2023/05/29 04:26:07;;;;;;;;;;;16.10;99.90;;;;;;5074942;28;19989;-62
2023/05/29 04:28:33;;;;;;;;;;;16.10;99.90;;;;;;5074842;28;20458;-65
2023/05/29 04:30:59;;;;;;;;;;;16.20;99.90;;;;;;5074661;28;20383;-62
2023/05/29 04:33:25;;;;;;;;;;;16.30;99.90;;;;;;5074970;28;20035;-63
2023/05/29 04:35:50;;;;;;;;;;;16.20;99.90;;;;;;5074728;28;19993;-63
2023/05/29 04:38:16;;;;;;;;;;;16.20;99.90;;;;;;5074384;28;19982;-65
2023/05/29 04:40:43;;;;;;;;;;;16.10;99.90;;;;;;5074551;28;19982;-64
2023/05/29 04:43:09;;;;;;;;;;;16.10;99.90;;;;;;5074293;28;20072;-65
2023/05/29 04:45:36;;;;;;;;;;;16.20;99.90;;;;;;5074458;28;19990;-61
2023/05/29 04:48:03;;;;;;;;;;;16.40;99.90;;;;;;5074730;28;19986;-65
2023/05/29 04:50:30;;;;;;;;;;;16.50;99.90;;;;;;5074285;28;20049;-62
2023/05/29 04:52:57;;;;;;;;;;;16.60;99.90;;;;;;5074353;28;19986;-63
2023/05/29 04:55:23;;;;;;;;;;;16.50;99.90;;;;;;5074260;28;19988;-62
2023/05/29 04:57:49;;;;;;;;;;;16.50;99.90;;;;;;5074246;28;19985;-64
2023/05/29 05:00:15;;;;;;;;;;;16.50;99.90;;;;;;5074015;28;19988;-64
2023/05/29 05:02:42;;;;;;;;;;;16.60;99.90;;;;;;5074080;28;20068;-62
2023/05/29 05:05:08;;;;;;;;;;;16.60;99.90;;;;;;5074089;28;20028;-64
2023/05/29 05:07:34;;;;;;;;;;;16.80;99.90;;;;;;5073665;28;20017;-63
2023/05/29 05:09:59;;;;;;;;;;;16.80;99.90;;;;;;5072526;28;20015;-64
2023/05/29 05:12:25;;;;;;;;;;;16.70;99.90;;;;;;5073918;28;19985;-64
2023/05/29 05:14:50;;;;;;;;;;;16.70;99.90;;;;;;5073911;28;19981;-62
2023/05/29 05:17:16;;;;;;;;;;;16.70;99.90;;;;;;5073796;28;19981;-63
2023/05/29 05:19:42;;;;;;;;;;;16.60;99.90;;;;;;5073880;28;20035;-63
2023/05/29 05:22:07;;;;;;;;;;;16.60;99.90;;;;;;5073769;28;19988;-64
2023/05/29 05:24:34;;;;;;;;;;;16.60;99.90;;;;;;5073645;28;19989;-64
2023/05/29 05:27:00;;;;;;;;;;;16.70;99.90;;;;;;5073408;28;20057;-65
2023/05/29 05:29:25;;;;;;;;;;;16.90;99.90;;;;;;5073737;28;20096;-63
2023/05/29 05:31:51;;;;;;;;;;;17.00;99.90;;;;;;5073581;28;19988;-66
2023/05/29 05:34:17;;;;;;;;;;;17.20;99.90;;;;;;5073726;28;19981;-62
2023/05/29 05:36:42;;;;;;;;;;;17.30;99.90;;;;;;5073560;28;19988;-65
2023/05/29 05:39:08;;;;;;;;;;;17.50;99.90;;;;;;5073575;28;20017;-62
2023/05/29 05:41:33;;;;;;;;;;;17.60;99.90;;;;;;5073438;28;20012;-66
2023/05/29 05:43:59;;;;;;;;;;;17.70;99.90;;;;;;5072277;28;20071;-65
2023/05/29 05:46:25;;;;;;;;;;;17.90;99.90;;;;;;5073486;28;19981;-63
2023/05/29 05:48:51;;;;;;;;;;;18.00;99.90;;;;;;5072000;28;19989;-65
2023/05/29 05:51:17;;;;;;;;;;;18.20;99.90;;;;;;5072053;28;20436;-61
2023/05/29 05:53:43;;;;;;;;;;;18.10;99.90;;;;;;5071113;28;19989;-62
2023/05/29 05:56:09;;;;;;;;;;;17.90;99.90;;;;;;5071983;28;19985;-65
2023/05/29 05:58:34;;;;;;;;;;;17.80;99.90;;;;;;5072502;28;19985;-63
2023/05/29 06:01:00;;;;;;;;;;;17.90;99.90;;;;;;5073153;28;19989;-64
2023/05/29 06:03:26;;;;;;;;;;;18.40;99.90;;;;;;5072619;28;20031;-63
2023/05/29 06:05:54;;;;;;;;;;;18.80;99.90;;;;;;5073138;28;20352;-62
2023/05/29 06:08:19;;;;;;;;;;;18.80;99.90;;;;;;5072516;28;19982;-64
2023/05/29 06:10:45;;;;;;;;;;;18.90;99.90;;;;;;5071130;28;20005;-64
2023/05/29 06:13:11;;;;;;;;;;;19.10;99.90;;;;;;5081594;28;19989;-64
2023/05/29 06:15:37;;;;;;;;;;;19.50;99.90;;;;;;5090705;28;20103;-62
2023/05/29 06:18:05;;;;;;;;;;;19.70;99.90;;;;;;5089264;28;20095;-65
2023/05/29 06:20:30;;;;;;;;;;;19.80;99.90;;;;;;5084827;28;19985;-66
2023/05/29 06:22:56;;;;;;;;;;;19.80;99.90;;;;;;5091006;28;20046;-64
2023/05/29 06:25:21;;;;;;;;;;;19.90;99.90;;;;;;5087798;28;19993;-65
2023/05/29 06:27:47;;;;;;;;;;;20.10;99.90;;;;;;5092319;28;19981;-65
2023/05/29 06:30:13;;;;;;;;;;;20.00;99.90;;;;;;5091285;28;20016;-62
2023/05/29 06:32:38;;;;;;;;;;;19.90;99.90;;;;;;5092446;28;20336;-63
2023/05/29 06:35:06;;;;;;;;;;;19.80;99.90;;;;;;5089427;28;20080;-64
2023/05/29 06:37:31;;;;;;;;;;;19.80;99.90;;;;;;5091993;28;19985;-63
2023/05/29 06:39:57;;;;;;;;;;;19.80;99.90;;;;;;5096065;28;19985;-63
2023/05/29 06:42:22;;;;;;;;;;;19.90;99.90;;;;;;5095692;28;20028;-64
2023/05/29 06:44:48;;;;;;;;;;;20.10;99.90;;;;;;5094432;28;20058;-65
2023/05/29 06:47:13;;;;;;;;;;;20.30;99.90;;;;;;5096426;28;20835;-62
2023/05/29 06:49:39;;;;;;;;;;;20.50;99.90;;;;;;5095704;28;20008;-61
2023/05/29 06:52:05;;;;;;;;;;;20.60;99.90;;;;;;5094234;28;19991;-64
2023/05/29 06:54:30;;;;;;;;;;;20.50;99.90;;;;;;5095003;28;20024;-65
2023/05/29 06:56:56;;;;;;;;;;;20.60;99.90;;;;;;5095359;28;20075;-64
2023/05/29 06:59:22;;;;;;;;;;;20.80;99.90;;;;;;5091647;28;19986;-65
2023/05/29 07:01:47;;;;;;;;;;;21.10;99.90;;;;;;5092272;28;20000;-63
2023/05/29 07:04:13;;;;;;;;;;;21.40;99.90;;;;;;5095300;28;19989;-64
2023/05/29 07:06:39;;;;;;;;;;;21.50;99.90;;;;;;5089784;28;20020;-63
2023/05/29 07:09:04;;;;;;;;;;;21.60;99.90;;;;;;5076171;28;20115;-64
2023/05/29 07:11:30;;;;;;;;;;;21.80;99.90;;;;;;5074708;28;19985;-64
2023/05/29 07:13:56;;;;;;;;;;;22.10;99.90;;;;;;5073798;28;19993;-61
2023/05/29 07:16:21;;;;;;;;;;;22.50;99.90;;;;;;5073266;28;20432;-62
2023/05/29 07:18:47;;;;;;;;;;;22.80;99.90;;;;;;5074325;28;19988;-62
2023/05/29 07:21:13;;;;;;;;;;;22.90;99.90;;;;;;5073055;28;19982;-64
2023/05/29 07:23:39;;;;;;;;;;;22.90;99.90;;;;;;5070204;28;19985;-61
2023/05/29 07:26:05;;;;;;;;;;;22.70;99.90;;;;;;5072890;28;19982;-62
2023/05/29 07:28:30;;;;;;;;;;;22.90;99.90;;;;;;5073019;28;20007;-66
2023/05/29 07:30:56;;;;;;;;;;;23.50;99.90;;;;;;5074095;28;20009;-62
2023/05/29 07:33:21;;;;;;;;;;;25.50;99.90;;;;;;5074382;28;19982;-64
2023/05/29 08:01:16;;;;;;;;;;;26.90;96.60;;;;;;5086158;28;20433;-66
2023/05/29 08:16:14;;;;;;;;;;;29.70;90.90;;;;;;5085680;28;20011;-64
2023/05/29 08:18:40;;;;;;;;;;;29.20;90.50;;;;;;5086240;28;19989;-64
2023/05/29 08:21:06;;;;;;;;;;;29.70;89.30;;;;;;5094892;28;19984;-63
2023/05/29 08:23:32;;;;;;;;;;;31.20;85.70;;;;;;5105739;28;19996;-62
2023/05/29 08:25:57;;;;;;;;;;;32.20;79.20;;;;;;5094138;28;19985;-63
2023/05/29 08:28:23;;;;;;;;;;;32.60;77.70;;;;;;5074985;28;19996;-65
2023/05/29 08:30:49;;;;;;;;;;;32.10;76.60;;;;;;5092543;28;20138;-61
2023/05/29 08:33:15;;;;;;;;;;;31.50;79.20;;;;;;5081684;28;19985;-62
2023/05/29 08:35:41;;;;;;;;;;;30.80;78.00;;;;;;5077284;28;20458;-64
2023/05/29 08:38:06;;;;;;;;;;;30.70;79.10;;;;;;5074628;28;20426;-64
2023/05/29 08:40:32;;;;;;;;;;;30.50;77.60;;;;;;5075291;28;19989;-63
2023/05/29 08:43:03;;;;;;;;;;;30.60;78.70;;;;;;5085854;28;19985;-62
2023/05/29 08:45:32;;;;;;;;;;;31.40;75.50;;;;;;5087493;28;20044;-62
2023/05/29 08:48:00;;;;;;;;;;;32.30;74.80;;;;;;5072744;28;20397;-62
2023/05/29 08:50:29;;;;;;;;;;;32.80;76.90;;;;;;5080133;28;20502;-66
2023/05/29 08:52:56;;;;;;;;;;;32.80;75.00;;;;;;5081386;28;19995;-62
2023/05/29 08:55:30;;;;;;;;;;;32.90;72.50;;;;;;5081590;28;19996;-64
2023/05/29 08:57:56;;;;;;;;;;;32.70;70.50;;;;;;5078581;28;20466;-63
2023/05/29 09:00:31;;;;;;;;;;;32.50;69.70;;;;;;5072768;28;20017;-63
2023/05/29 09:02:59;;;;;;;;;;;32.70;71.80;;;;;;5095693;28;19984;-62
2023/05/29 09:05:27;;;;;;;;;;;32.00;72.20;;;;;;5092131;28;20046;-64
2023/05/29 09:07:53;;;;;;;;;;;31.30;74.90;;;;;;5091918;28;20071;-67
2023/05/29 09:10:29;;;;;;;;;;;31.10;73.30;;;;;;5077006;28;20005;-66
2023/05/29 09:12:56;;;;;;;;;;;32.00;71.60;;;;;;5088509;28;20129;-69
2023/05/29 09:15:23;;;;;;;;;;;32.40;70.40;;;;;;5091776;28;19982;-65
2023/05/29 09:17:55;;;;;;;;;;;33.10;70.10;;;;;;5092414;28;19989;-65
2023/05/29 09:20:28;;;;;;;;;;;32.70;71.00;;;;;;5076805;28;19993;-65
2023/05/29 09:23:03;;;;;;;;;;;32.00;69.00;;;;;;5071889;28;20450;-62
2023/05/29 09:25:40;;;;;;;;;;;31.70;69.60;;;;;;5088204;28;20079;-62
2023/05/29 09:28:07;;;;;;;;;;;30.60;71.70;;;;;;5089673;28;19989;-63
2023/05/29 09:30:37;;;;;;;;;;;30.00;73.50;;;;;;5089220;28;20001;-62
2023/05/29 09:33:03;;;;;;;;;;;30.60;74.80;;;;;;5077979;28;20000;-63
2023/05/29 09:35:35;;;;;;;;;;;31.10;74.40;;;;;;5070763;28;19981;-63
2023/05/29 09:38:01;;;;;;;;;;;31.50;74.80;;;;;;5071199;28;20072;-63
2023/05/29 09:40:29;;;;;;;;;;;31.20;71.20;;;;;;5080688;28;19985;-62
2023/05/29 09:42:55;;;;;;;;;;;31.50;70.40;;;;;;5087277;28;19988;-62
2023/05/29 09:45:26;;;;;;;;;;;31.50;70.50;;;;;;5090601;28;20339;-63
2023/05/29 09:47:52;;;;;;;;;;;31.70;70.30;;;;;;5089744;28;20052;-62
2023/05/29 09:50:20;;;;;;;;;;;31.10;70.40;;;;;;5090050;28;20096;-65
2023/05/29 09:52:46;;;;;;;;;;;30.30;69.40;;;;;;5088697;28;20224;-64
2023/05/29 09:55:17;;;;;;;;;;;29.60;71.10;;;;;;5090500;28;20071;-65
2023/05/29 09:57:45;;;;;;;;;;;29.10;72.30;;;;;;5091785;28;20446;-63
2023/05/29 10:00:13;;;;;;;;;;;28.60;73.70;;;;;;5092162;28;20031;-64
2023/05/29 10:02:39;;;;;;;;;;;28.40;72.90;;;;;;5091240;28;19985;-64
2023/05/29 10:05:09;;;;;;;;;;;27.90;75.60;;;;;;5092163;28;19988;-65
2023/05/29 10:07:35;;;;;;;;;;;27.70;74.60;;;;;;5092672;28;19991;-63
2023/05/29 10:10:07;;;;;;;;;;;27.60;75.90;;;;;;5093532;28;20005;-63
2023/05/29 10:12:36;;;;;;;;;;;27.50;75.00;;;;;;5094131;28;20344;-64
2023/05/29 10:15:02;;;;;;;;;;;27.30;78.30;;;;;;5096571;28;20354;-65
2023/05/29 10:17:32;;;;;;;;;;;27.00;78.00;;;;;;5096192;28;19992;-67
2023/05/29 10:20:01;;;;;;;;;;;26.80;77.30;;;;;;5095323;28;19985;-67
2023/05/29 10:22:27;;;;;;;;;;;26.80;79.10;;;;;;5096593;28;19982;-63
2023/05/29 10:24:53;;;;;;;;;;;26.70;80.60;;;;;;5096426;28;20195;-62
2023/05/29 10:27:20;;;;;;;;;;;26.70;81.60;;;;;;5096237;28;19985;-61
2023/05/29 10:29:49;;;;;;;;;;;26.60;81.80;;;;;;5091005;28;20382;-63
2023/05/29 10:32:26;;;;;;;;;;;26.30;82.70;;;;;;5073607;28;20084;-65
2023/05/29 10:34:58;;;;;;;;;;;26.00;83.50;;;;;;5076942;28;20025;-63
2023/05/29 10:37:33;;;;;;;;;;;25.70;85.10;;;;;;5086310;28;19989;-68
2023/05/29 10:40:06;;;;;;;;;;;25.40;88.70;;;;;;5094461;28;19989;-70
2023/05/29 10:42:38;;;;;;;;;;;25.10;91.10;;;;;;5094378;28;20000;-64
2023/05/29 10:45:04;;;;;;;;;;;24.60;87.60;;;;;;5092961;28;20024;-66
2023/05/29 10:47:30;;;;;;;;;;;24.10;89.80;;;;;;5094049;28;20083;-63
2023/05/29 10:50:03;;;;;;;;;;;23.30;87.20;;;;;;5094474;28;20511;-63
2023/05/29 10:52:31;;;;;;;;;;;22.70;91.10;;;;;;5096559;28;20405;-63
2023/05/29 10:54:57;;;;;;;;;;;22.10;93.50;;;;;;5096019;28;20001;-64
2023/05/29 10:57:23;;;;;;;;;;;22.10;94.70;;;;;;5095442;28;20448;-66
2023/05/29 10:59:59;;;;;;;;;;;22.10;95.80;;;;;;5082814;28;19985;-66
2023/05/29 11:02:25;;;;;;;;;;;22.00;96.20;;;;;;5076680;28;20059;-68
2023/05/29 11:05:17;;;;;;;;;;;22.10;97.60;;;;;;5075193;28;20356;-62
2023/05/29 11:07:54;;;;;;;;;;;22.10;98.70;;;;;;5074632;28;20034;-61
2023/05/29 11:10:40;;;;;;;;;;;22.20;99.70;;;;;;5075757;28;20103;-62
2023/05/29 11:13:07;;;;;;;;;;;22.60;99.90;;;;;;5068783;28;19995;-60
2023/05/29 11:15:33;;;;;;;;;;;22.80;99.90;;;;;;5073887;28;20017;-62
2023/05/29 11:18:08;;;;;;;;;;;22.90;99.90;;;;;;5076110;28;20039;-62
2023/05/29 11:20:41;;;;;;;;;;;22.90;99.90;;;;;;5075858;28;19989;-61
2023/05/29 11:23:08;;;;;;;;;;;22.90;99.90;;;;;;5076071;28;19989;-64
2023/05/29 11:25:36;;;;;;;;;;;23.00;99.90;;;;;;5075374;28;19985;-60
2023/05/29 11:28:04;;;;;;;;;;;23.20;99.90;;;;;;5079099;28;20009;-60
2023/05/29 11:30:30;;;;;;;;;;;23.30;99.90;;;;;;5108591;28;20011;-62
2023/05/29 11:32:59;;;;;;;;;;;23.60;99.90;;;;;;5091923;28;19994;-61
2023/05/29 11:35:28;;;;;;;;;;;23.90;99.90;;;;;;5075347;28;20406;-63
2023/05/29 11:37:54;;;;;;;;;;;24.90;99.90;;;;;;5081810;28;19982;-65
2023/05/29 11:40:23;;;;;;;;;;;25.70;99.90;;;;;;5093504;28;19981;-61
2023/05/29 11:42:48;;;;;;;;;;;25.90;99.90;;;;;;5089519;28;20034;-63
2023/05/29 11:45:25;;;;;;;;;;;26.10;99.90;;;;;;5090564;28;19989;-65
2023/05/29 11:47:58;;;;;;;;;;;26.10;99.90;;;;;;5094148;28;19996;-63
2023/05/29 11:50:25;;;;;;;;;;;26.20;99.90;;;;;;5093246;28;20008;-63
2023/05/29 11:52:53;;;;;;;;;;;26.40;99.90;;;;;;5089340;28;20011;-62
2023/05/29 11:55:20;;;;;;;;;;;26.90;98.30;;;;;;5092937;28;20091;-60
2023/05/29 11:58:06;;;;;;;;;;;27.10;99.90;;;;;;5092455;28;20359;-64
2023/05/29 12:00:35;;;;;;;;;;;26.80;98.30;;;;;;5092420;28;20021;-63
2023/05/29 12:03:03;;;;;;;;;;;26.60;99.20;;;;;;5082160;28;20042;-64
2023/05/29 12:05:30;;;;;;;;;;;26.40;97.50;;;;;;5085356;28;19989;-64
2023/05/29 12:07:56;;;;;;;;;;;26.00;98.20;;;;;;5080997;28;19993;-62
2023/05/29 12:10:22;;;;;;;;;;;25.70;98.70;;;;;;5094402;28;20001;-63
2023/05/29 12:12:49;;;;;;;;;;;25.60;98.30;;;;;;5092469;28;19989;-63
2023/05/29 12:15:16;;;;;;;;;;;25.60;98.70;;;;;;5092204;28;20032;-63
2023/05/29 12:17:42;;;;;;;;;;;25.70;99.90;;;;;;5091938;28;19982;-64
2023/05/29 12:20:09;;;;;;;;;;;25.70;98.50;;;;;;5091959;28;19985;-62
2023/05/29 12:22:35;;;;;;;;;;;25.70;98.20;;;;;;5093439;28;20343;-63
2023/05/29 12:25:11;;;;;;;;;;;25.60;99.00;;;;;;5094301;28;19992;-62
2023/05/29 12:27:43;;;;;;;;;;;25.70;99.50;;;;;;5094073;28;19980;-63
2023/05/29 12:30:15;;;;;;;;;;;25.90;99.10;;;;;;5093013;28;20000;-63
2023/05/29 12:32:42;;;;;;;;;;;26.00;99.00;;;;;;5092621;28;19992;-63
2023/05/29 12:35:12;;;;;;;;;;;26.10;99.90;;;;;;5092625;28;20087;-63
2023/05/29 12:37:45;;;;;;;;;;;26.30;98.90;;;;;;5094065;28;19985;-63
2023/05/29 12:40:15;;;;;;;;;;;26.40;98.90;;;;;;5094780;28;19986;-62
2023/05/29 12:42:40;;;;;;;;;;;26.60;98.90;;;;;;5095062;28;19984;-63
2023/05/29 12:45:07;;;;;;;;;;;27.10;99.90;;;;;;5093912;28;19996;-62
2023/05/29 12:47:33;;;;;;;;;;;27.60;97.80;;;;;;5094647;28;20083;-62
2023/05/29 12:49:59;;;;;;;;;;;28.00;97.30;;;;;;5094768;28;20095;-63
2023/05/29 12:52:24;;;;;;;;;;;28.20;96.20;;;;;;5094625;28;20470;-62
2023/05/29 12:54:50;;;;;;;;;;;28.40;96.20;;;;;;5094798;28;20005;-63
2023/05/29 12:57:16;;;;;;;;;;;28.50;94.50;;;;;;5094657;28;20431;-63
2023/05/29 12:59:41;;;;;;;;;;;28.10;94.30;;;;;;5093277;28;20435;-62
2023/05/29 13:02:07;;;;;;;;;;;27.60;94.10;;;;;;5094405;28;20013;-62
2023/05/29 13:04:33;;;;;;;;;;;27.50;95.80;;;;;;5094126;28;20451;-63
2023/05/29 13:06:59;;;;;;;;;;;27.60;96.10;;;;;;5094671;28;20355;-63
2023/05/29 13:09:25;;;;;;;;;;;27.70;94.30;;;;;;5094610;28;20014;-64
2023/05/29 13:11:52;;;;;;;;;;;27.70;95.50;;;;;;5094194;28;20000;-62
2023/05/29 13:14:18;;;;;;;;;;;27.80;94.80;;;;;;5094305;28;20466;-63
2023/05/29 13:16:44;;;;;;;;;;;27.90;95.10;;;;;;5094600;28;19985;-62
2023/05/29 13:19:09;;;;;;;;;;;27.80;95.80;;;;;;5094215;28;20415;-63
2023/05/29 13:21:35;;;;;;;;;;;27.70;95.50;;;;;;5094181;28;19985;-63
2023/05/29 13:24:00;;;;;;;;;;;27.60;94.30;;;;;;5094260;28;19985;-63
2023/05/29 13:26:26;;;;;;;;;;;27.40;95.20;;;;;;5094341;28;19985;-64
2023/05/29 13:28:52;;;;;;;;;;;27.20;95.30;;;;;;5094164;28;19988;-64
2023/05/29 13:31:20;;;;;;;;;;;27.00;94.60;;;;;;5093944;28;20001;-62
2023/05/29 13:33:46;;;;;;;;;;;27.00;95.20;;;;;;5093843;28;19990;-62
2023/05/29 13:36:12;;;;;;;;;;;27.00;95.70;;;;;;5094305;28;19988;-64
2023/05/29 13:38:38;;;;;;;;;;;26.90;95.90;;;;;;5094235;28;20054;-63
2023/05/29 13:41:03;;;;;;;;;;;26.90;96.30;;;;;;5093950;28;20060;-64
2023/05/29 13:43:29;;;;;;;;;;;26.50;97.60;;;;;;5093890;28;19985;-62
2023/05/29 13:45:54;;;;;;;;;;;25.90;99.20;;;;;;5094204;28;20499;-62
2023/05/29 13:48:21;;;;;;;;;;;25.50;99.90;;;;;;5093371;28;19992;-61
2023/05/29 13:50:46;;;;;;;;;;;25.20;99.90;;;;;;5093656;28;20007;-62
2023/05/29 13:53:12;;;;;;;;;;;25.10;99.90;;;;;;5093842;28;20080;-62
2023/05/29 13:55:37;;;;;;;;;;;25.10;99.90;;;;;;5093714;28;19997;-62
2023/05/29 13:58:03;;;;;;;;;;;25.00;99.90;;;;;;5093671;28;19981;-63
2023/05/29 14:00:28;;;;;;;;;;;24.90;99.90;;;;;;5093735;28;20103;-64
2023/05/29 14:02:54;;;;;;;;;;;24.90;99.90;;;;;;5093533;28;19993;-63
2023/05/29 14:05:20;;;;;;;;;;;24.90;99.90;;;;;;5093636;28;19993;-63
2023/05/29 14:07:45;;;;;;;;;;;25.10;99.90;;;;;;5093730;28;19985;-62
2023/05/29 14:10:11;;;;;;;;;;;25.30;99.90;;;;;;5093708;28;20008;-64
2023/05/29 14:12:36;;;;;;;;;;;25.30;99.90;;;;;;5093681;28;20029;-64
2023/05/29 14:15:02;;;;;;;;;;;25.20;99.90;;;;;;5093540;28;20031;-63
2023/05/29 14:17:28;;;;;;;;;;;24.90;99.90;;;;;;5093413;28;20354;-61
2023/05/29 14:19:54;;;;;;;;;;;24.60;99.90;;;;;;5093616;28;20064;-63
2023/05/29 14:22:20;;;;;;;;;;;24.40;99.90;;;;;;5093491;28;20063;-62
2023/05/29 14:24:45;;;;;;;;;;;24.30;99.90;;;;;;5093638;28;20036;-63
2023/05/29 14:27:11;;;;;;;;;;;24.30;99.90;;;;;;5093529;28;19989;-62
2023/05/29 14:29:37;;;;;;;;;;;24.30;99.90;;;;;;5093260;28;20004;-62
2023/05/29 14:32:02;;;;;;;;;;;24.40;99.90;;;;;;5093235;28;19985;-62
2023/05/29 14:34:28;;;;;;;;;;;24.40;99.90;;;;;;5093428;28;19981;-64
2023/05/29 14:36:53;;;;;;;;;;;24.40;99.90;;;;;;5093286;28;19981;-63
2023/05/29 14:39:19;;;;;;;;;;;24.50;99.90;;;;;;5093499;28;19989;-62
2023/05/29 14:41:44;;;;;;;;;;;24.60;99.90;;;;;;5093589;28;19992;-64
2023/05/29 14:44:12;;;;;;;;;;;24.70;99.90;;;;;;5093317;28;20011;-63
2023/05/29 14:46:37;;;;;;;;;;;24.70;99.90;;;;;;5093115;28;19981;-61
2023/05/29 14:49:03;;;;;;;;;;;24.80;99.90;;;;;;5093294;28;20332;-63
2023/05/29 14:51:28;;;;;;;;;;;24.90;99.90;;;;;;5093228;28;20336;-62
2023/05/29 14:53:54;;;;;;;;;;;25.10;99.90;;;;;;5093146;28;20007;-63